Time;durP1;ratioP1;P1;durP2;ratioP2;P2;SDS_P1;SDS_P2;PMS_P1;PMS_P2;Temp;Humidity;BMP_temperature;BMP_pressure;BME280_temperature;BME280_humidity;BME280_pressure;Samples;Min_cycle;Max_cycle;Signal;HPM_P1;HPM_P2
2022/09/03 00:02:08;;;;;;;3.63;1.50;;;;;;;;;;5070490;28;20445;-67
2022/09/03 00:04:42;;;;;;;2.50;1.57;;;;;;;;;;5070869;28;20452;-68
2022/09/03 00:07:16;;;;;;;1.60;1.50;;;;;;;;;;5069871;28;20785;-67
2022/09/03 00:09:45;;;;;;;1.73;1.53;;;;;;;;;;5070718;28;20478;-67
2022/09/03 00:12:15;;;;;;;2.27;1.70;;;;;;;;;;5070423;28;20452;-67
2022/09/03 00:14:46;;;;;;;1.73;1.20;;;;;;;;;;5070810;28;20488;-67
2022/09/03 00:17:15;;;;;;;2.33;1.50;;;;;;;;;;5070229;28;20984;-68
2022/09/03 00:19:47;;;;;;;2.70;1.70;;;;;;;;;;5070641;28;20536;-68
2022/09/03 00:22:17;;;;;;;1.53;1.43;;;;;;;;;;5068673;28;20460;-68
2022/09/03 00:24:44;;;;;;;2.30;1.33;;;;;;;;;;5069630;28;20509;-68
2022/09/03 00:27:13;;;;;;;1.80;1.67;;;;;;;;;;5070382;28;20525;-68
2022/09/03 00:29:44;;;;;;;2.53;1.37;;;;;;;;;;5070523;28;20457;-68
2022/09/03 00:32:15;;;;;;;1.67;1.57;;;;;;;;;;5069710;28;20456;-68
2022/09/03 00:34:44;;;;;;;1.63;1.20;;;;;;;;;;5070004;28;21015;-68
2022/09/03 00:37:11;;;;;;;1.83;1.53;;;;;;;;;;5070025;28;20529;-68
2022/09/03 00:39:39;;;;;;;1.87;1.77;;;;;;;;;;5069891;28;20540;-68
2022/09/03 00:42:14;;;;;;;3.00;1.70;;;;;;;;;;5070028;28;20445;-68
2022/09/03 00:45:05;;;;;;;2.90;1.60;;;;;;;;;;5069876;28;20513;-68
2022/09/03 00:47:38;;;;;;;1.43;1.33;;;;;;;;;;5048859;28;20522;-68
2022/09/03 00:50:11;;;;;;;1.30;1.10;;;;;;;;;;5069703;28;20454;-68
2022/09/03 00:52:43;;;;;;;1.60;1.50;;;;;;;;;;5070142;28;20511;-68
2022/09/03 00:55:17;;;;;;;1.83;1.63;;;;;;;;;;5069310;28;20489;-68
2022/09/03 00:57:49;;;;;;;2.23;1.23;;;;;;;;;;5069737;28;20453;-68
2022/09/03 01:00:18;;;;;;;2.83;1.50;;;;;;;;;;5069743;28;20540;-69
2022/09/03 01:02:56;;;;;;;2.00;1.57;;;;;;;;;;5069902;28;20458;-68
2022/09/03 01:05:29;;;;;;;4.50;1.57;;;;;;;;;;5069768;28;20464;-68
2022/09/03 01:08:05;;;;;;;1.73;1.53;;;;;;;;;;5069620;28;20483;-69
2022/09/03 01:10:38;;;;;;;1.63;1.30;;;;;;;;;;5069957;28;20924;-69
2022/09/03 01:13:07;;;;;;;3.03;1.97;;;;;;;;;;5069821;28;20456;-68
2022/09/03 01:15:41;;;;;;;2.53;1.60;;;;;;;;;;5069592;28;20602;-68
2022/09/03 01:18:19;;;;;;;1.40;1.30;;;;;;;;;;5069893;28;20464;-68
2022/09/03 01:20:50;;;;;;;1.73;1.47;;;;;;;;;;5070070;28;20975;-68
2022/09/03 01:23:29;;;;;;;1.80;1.50;;;;;;;;;;5069849;28;20453;-68
2022/09/03 01:26:03;;;;;;;2.13;1.43;;;;;;;;;;5069423;28;20469;-68
2022/09/03 01:28:41;;;;;;;1.47;1.37;;;;;;;;;;5069674;28;20473;-68
2022/09/03 01:31:13;;;;;;;1.50;1.40;;;;;;;;;;5069543;28;20448;-68
2022/09/03 01:33:41;;;;;;;1.27;1.13;;;;;;;;;;5069590;28;20450;-68
2022/09/03 01:36:12;;;;;;;1.73;1.40;;;;;;;;;;5069380;28;20454;-68
2022/09/03 01:38:43;;;;;;;2.23;1.40;;;;;;;;;;5069970;28;20462;-68
2022/09/03 01:44:18;;;;;;;1.63;1.30;;;;;;;;;;4982263;28;20560;-68
2022/09/03 01:46:47;;;;;;;1.60;1.50;;;;;;;;;;5043871;28;20450;-68
2022/09/03 01:49:21;;;;;;;1.37;1.00;;;;;;;;;;5066588;28;20478;-68
2022/09/03 01:51:51;;;;;;;1.53;1.40;;;;;;;;;;5069481;28;20447;-68
2022/09/03 01:54:27;;;;;;;1.90;1.80;;;;;;;;;;5069050;28;20576;-68
2022/09/03 01:57:15;;;;;;;1.50;1.40;;;;;;;;;;5069572;28;20433;-68
2022/09/03 01:59:47;;;;;;;1.17;1.07;;;;;;;;;;5059036;28;20452;-68
2022/09/03 02:02:18;;;;;;;1.40;1.30;;;;;;;;;;5068870;28;20455;-68
2022/09/03 02:04:56;;;;;;;2.00;1.40;;;;;;;;;;5068978;28;20446;-68
2022/09/03 02:07:24;;;;;;;1.80;1.17;;;;;;;;;;5069660;28;20449;-68
2022/09/03 02:09:51;;;;;;;2.07;1.30;;;;;;;;;;5069913;28;20577;-68
2022/09/03 02:12:20;;;;;;;1.87;1.23;;;;;;;;;;5073211;28;20810;-68
2022/09/03 02:14:49;;;;;;;3.10;1.47;;;;;;;;;;5072229;28;20544;-68
2022/09/03 02:17:16;;;;;;;1.50;1.37;;;;;;;;;;5072569;28;20528;-69
2022/09/03 02:19:44;;;;;;;1.67;1.57;;;;;;;;;;5073204;28;20449;-68
2022/09/03 02:22:11;;;;;;;1.53;1.43;;;;;;;;;;5072761;28;20477;-68
2022/09/03 02:24:38;;;;;;;4.30;1.43;;;;;;;;;;5072026;28;20470;-69
2022/09/03 02:27:05;;;;;;;1.83;1.33;;;;;;;;;;5072712;28;20460;-68
2022/09/03 02:29:33;;;;;;;2.40;1.40;;;;;;;;;;5072669;28;20943;-68
2022/09/03 02:32:02;;;;;;;2.33;1.50;;;;;;;;;;5072803;28;20541;-68
2022/09/03 02:34:30;;;;;;;1.60;1.40;;;;;;;;;;5072023;28;21016;-68
2022/09/03 02:36:57;;;;;;;1.17;1.03;;;;;;;;;;5072259;28;20465;-68
2022/09/03 02:39:26;;;;;;;1.60;1.10;;;;;;;;;;5072411;28;20512;-68
2022/09/03 02:41:55;;;;;;;2.23;1.37;;;;;;;;;;5072487;28;20791;-68
2022/09/03 02:44:26;;;;;;;2.70;1.30;;;;;;;;;;5071853;28;20507;-68
2022/09/03 02:46:54;;;;;;;1.50;1.33;;;;;;;;;;5072060;28;20533;-68
2022/09/03 02:49:23;;;;;;;1.63;1.53;;;;;;;;;;5072215;28;20573;-68
2022/09/03 02:51:50;;;;;;;1.30;1.20;;;;;;;;;;5072147;28;20580;-69
2022/09/03 02:54:17;;;;;;;3.13;1.50;;;;;;;;;;5071846;28;20888;-68
2022/09/03 02:56:47;;;;;;;1.10;1.00;;;;;;;;;;5072084;28;20857;-68
2022/09/03 02:59:14;;;;;;;1.57;1.47;;;;;;;;;;5072102;28;20487;-68
2022/09/03 03:01:41;;;;;;;1.83;1.73;;;;;;;;;;5072225;28;20460;-68
2022/09/03 03:04:08;;;;;;;1.10;1.00;;;;;;;;;;5071345;28;20817;-68
2022/09/03 03:06:37;;;;;;;5.70;1.80;;;;;;;;;;5071926;28;20949;-69
2022/09/03 03:09:04;;;;;;;1.90;1.70;;;;;;;;;;5071153;28;20573;-68
2022/09/03 03:11:32;;;;;;;2.00;1.70;;;;;;;;;;5072018;28;20450;-68
2022/09/03 03:13:59;;;;;;;2.50;1.63;;;;;;;;;;5071233;28;20475;-68
2022/09/03 03:16:26;;;;;;;1.93;1.47;;;;;;;;;;5071844;28;20457;-68
2022/09/03 03:18:53;;;;;;;2.30;1.67;;;;;;;;;;5071261;28;20506;-68
2022/09/03 03:21:20;;;;;;;2.37;1.50;;;;;;;;;;5071067;28;20485;-68
2022/09/03 03:23:49;;;;;;;2.10;1.20;;;;;;;;;;5058014;28;20464;-68
2022/09/03 03:26:18;;;;;;;1.50;1.40;;;;;;;;;;5071685;28;20445;-68
2022/09/03 03:28:47;;;;;;;2.43;1.20;;;;;;;;;;5071787;28;20500;-68
2022/09/03 03:31:15;;;;;;;1.30;1.20;;;;;;;;;;5071485;28;20824;-68
2022/09/03 03:33:42;;;;;;;1.57;1.47;;;;;;;;;;5070835;28;20965;-68
2022/09/03 03:36:10;;;;;;;2.47;1.43;;;;;;;;;;5071009;28;20477;-68
2022/09/03 03:38:38;;;;;;;1.63;1.30;;;;;;;;;;5070962;28;21024;-68
2022/09/03 03:41:10;;;;;;;1.73;1.63;;;;;;;;;;5071021;28;21028;-68
2022/09/03 03:43:37;;;;;;;1.30;1.20;;;;;;;;;;5070843;28;20804;-68
2022/09/03 03:46:05;;;;;;;2.23;1.40;;;;;;;;;;5070891;28;20483;-68
2022/09/03 03:48:32;;;;;;;1.57;1.47;;;;;;;;;;5070895;28;20477;-68
2022/09/03 03:51:01;;;;;;;2.17;1.87;;;;;;;;;;5070786;28;20465;-68
2022/09/03 03:53:29;;;;;;;1.40;1.30;;;;;;;;;;5070687;28;20507;-68
2022/09/03 03:55:56;;;;;;;2.10;1.53;;;;;;;;;;5070541;28;20442;-69
2022/09/03 03:58:25;;;;;;;1.70;1.50;;;;;;;;;;5070824;28;20442;-68
2022/09/03 04:00:53;;;;;;;1.80;1.67;;;;;;;;;;5070738;28;20532;-68
2022/09/03 04:03:20;;;;;;;1.70;1.60;;;;;;;;;;5070332;28;20449;-69
2022/09/03 04:05:56;;;;;;;1.27;1.07;;;;;;;;;;5071012;28;20472;-68
2022/09/03 04:08:23;;;;;;;1.60;1.40;;;;;;;;;;5071015;28;20445;-68
2022/09/03 04:10:50;;;;;;;1.80;1.40;;;;;;;;;;5070411;28;20833;-69
2022/09/03 04:13:17;;;;;;;1.60;1.50;;;;;;;;;;5070340;28;20658;-68
2022/09/03 04:15:46;;;;;;;1.37;1.23;;;;;;;;;;5070745;28;20463;-68
2022/09/03 04:18:13;;;;;;;1.60;1.50;;;;;;;;;;5070212;28;20789;-68
2022/09/03 04:20:40;;;;;;;1.53;1.43;;;;;;;;;;5070719;28;20453;-68
2022/09/03 04:23:07;;;;;;;2.00;1.33;;;;;;;;;;5070257;28;20445;-68
2022/09/03 04:25:35;;;;;;;1.40;1.23;;;;;;;;;;5070035;28;21161;-68
2022/09/03 04:28:03;;;;;;;2.30;1.40;;;;;;;;;;5069975;28;20460;-66
2022/09/03 04:30:30;;;;;;;2.10;1.40;;;;;;;;;;5070207;28;20481;-69
2022/09/03 04:32:59;;;;;;;2.17;1.77;;;;;;;;;;5069464;28;20460;-68
2022/09/03 04:35:30;;;;;;;1.87;1.57;;;;;;;;;;5070056;28;20460;-68
2022/09/03 04:37:58;;;;;;;3.00;1.70;;;;;;;;;;5069713;28;20488;-68
2022/09/03 04:40:25;;;;;;;1.57;1.47;;;;;;;;;;5070263;28;20456;-68
2022/09/03 04:42:57;;;;;;;3.53;1.50;;;;;;;;;;5069833;28;20446;-68
2022/09/03 04:45:24;;;;;;;3.00;1.50;;;;;;;;;;5070055;28;20807;-68
2022/09/03 04:47:56;;;;;;;1.90;1.57;;;;;;;;;;5069801;28;20885;-68
2022/09/03 04:50:25;;;;;;;1.70;1.57;;;;;;;;;;5070389;28;20481;-68
2022/09/03 04:52:55;;;;;;;3.00;1.70;;;;;;;;;;5069621;28;20457;-68
2022/09/03 04:55:22;;;;;;;2.50;1.83;;;;;;;;;;5069686;28;20548;-69
2022/09/03 04:57:49;;;;;;;1.60;1.40;;;;;;;;;;5070357;28;20461;-69
2022/09/03 05:00:18;;;;;;;1.47;1.33;;;;;;;;;;5070347;28;20454;-68
2022/09/03 05:02:45;;;;;;;2.10;1.50;;;;;;;;;;5070161;28;20450;-68
2022/09/03 05:05:13;;;;;;;1.97;1.47;;;;;;;;;;5069159;28;20519;-68
2022/09/03 05:07:42;;;;;;;1.60;1.50;;;;;;;;;;5069984;28;20557;-68
2022/09/03 05:10:11;;;;;;;2.13;1.73;;;;;;;;;;5069676;28;20724;-68
2022/09/03 05:12:39;;;;;;;1.87;1.27;;;;;;;;;;5069469;28;20464;-68
2022/09/03 05:15:06;;;;;;;2.27;1.43;;;;;;;;;;5069122;28;20460;-68
2022/09/03 05:17:34;;;;;;;1.70;1.60;;;;;;;;;;5069886;28;20445;-69
2022/09/03 05:20:01;;;;;;;1.80;1.57;;;;;;;;;;5069602;28;20817;-68
2022/09/03 05:22:28;;;;;;;1.70;1.60;;;;;;;;;;5069625;28;20453;-68
2022/09/03 05:24:56;;;;;;;1.53;1.27;;;;;;;;;;5068438;28;20588;-69
2022/09/03 05:27:24;;;;;;;1.93;1.50;;;;;;;;;;5069873;28;20450;-68
2022/09/03 05:29:51;;;;;;;1.60;1.50;;;;;;;;;;5069878;28;20496;-68
2022/09/03 05:32:18;;;;;;;2.30;1.80;;;;;;;;;;5069456;28;20450;-68
2022/09/03 05:34:45;;;;;;;2.40;1.50;;;;;;;;;;5069309;28;20452;-67
2022/09/03 05:37:12;;;;;;;4.73;1.70;;;;;;;;;;5069520;28;20450;-67
2022/09/03 05:39:39;;;;;;;1.60;1.50;;;;;;;;;;5069233;28;21019;-67
2022/09/03 05:42:08;;;;;;;1.80;1.60;;;;;;;;;;5069131;28;20961;-68
2022/09/03 05:44:36;;;;;;;2.00;1.80;;;;;;;;;;5069643;28;20945;-69
2022/09/03 05:47:03;;;;;;;1.70;1.60;;;;;;;;;;5073359;28;20449;-68
2022/09/03 05:49:30;;;;;;;2.70;2.30;;;;;;;;;;5073351;28;20998;-67
2022/09/03 05:51:57;;;;;;;2.93;1.93;;;;;;;;;;5073278;28;20450;-68
2022/09/03 05:54:25;;;;;;;2.17;1.70;;;;;;;;;;5072393;28;20553;-67
2022/09/03 05:56:52;;;;;;;2.33;2.13;;;;;;;;;;5073218;28;20445;-68
2022/09/03 05:59:21;;;;;;;3.40;1.90;;;;;;;;;;5065100;28;20544;-67
2022/09/03 06:01:48;;;;;;;2.77;1.63;;;;;;;;;;5073269;28;20458;-67
2022/09/03 06:04:16;;;;;;;5.60;2.10;;;;;;;;;;5072216;28;20458;-67
2022/09/03 06:06:44;;;;;;;1.60;1.50;;;;;;;;;;5072952;28;20448;-67
2022/09/03 06:09:13;;;;;;;1.77;1.43;;;;;;;;;;5072617;28;20449;-67
2022/09/03 06:11:41;;;;;;;2.60;1.87;;;;;;;;;;5073323;28;20901;-68
2022/09/03 06:14:10;;;;;;;2.63;1.87;;;;;;;;;;5072281;28;20454;-67
2022/09/03 06:16:40;;;;;;;1.87;1.37;;;;;;;;;;5072594;28;20452;-68
2022/09/03 06:19:08;;;;;;;2.07;1.90;;;;;;;;;;5072409;28;20449;-67
2022/09/03 06:21:35;;;;;;;3.20;2.03;;;;;;;;;;5073126;28;20460;-69
2022/09/03 06:24:03;;;;;;;2.23;1.70;;;;;;;;;;5071755;28;20458;-68
2022/09/03 06:26:30;;;;;;;3.13;2.10;;;;;;;;;;5032910;28;20483;-68
2022/09/03 06:28:58;;;;;;;2.03;1.60;;;;;;;;;;5032389;28;20451;-68
2022/09/03 06:31:26;;;;;;;1.73;1.63;;;;;;;;;;5032400;28;20537;-67
2022/09/03 06:33:55;;;;;;;2.40;2.03;;;;;;;;;;5031881;28;20483;-67
2022/09/03 06:36:23;;;;;;;2.43;1.70;;;;;;;;;;5032493;28;20943;-67
2022/09/03 06:38:52;;;;;;;3.57;1.90;;;;;;;;;;5032245;28;20455;-69
2022/09/03 06:41:23;;;;;;;2.53;1.90;;;;;;;;;;5028838;28;20921;-70
2022/09/03 06:43:51;;;;;;;2.43;1.93;;;;;;;;;;5030196;28;20512;-68
2022/09/03 06:46:19;;;;;;;4.00;2.00;;;;;;;;;;5031930;28;20454;-69
2022/09/03 06:48:46;;;;;;;3.00;1.87;;;;;;;;;;5032220;28;20951;-68
2022/09/03 06:51:16;;;;;;;1.83;1.60;;;;;;;;;;5031837;28;20483;-68
2022/09/03 06:53:44;;;;;;;3.73;2.83;;;;;;;;;;5031665;28;20487;-68
2022/09/03 06:56:12;;;;;;;2.33;2.13;;;;;;;;;;5031769;28;20451;-68
2022/09/03 06:58:42;;;;;;;2.00;1.57;;;;;;;;;;5032175;28;20902;-68
2022/09/03 07:01:10;;;;;;;2.40;2.00;;;;;;;;;;5031943;28;20848;-69
2022/09/03 07:03:38;;;;;;;1.60;1.50;;;;;;;;;;5031495;28;20880;-70
2022/09/03 07:06:06;;;;;;;2.80;2.60;;;;;;;;;;5031993;28;20870;-70
2022/09/03 07:08:35;;;;;;;2.63;1.80;;;;;;;;;;5031387;28;20447;-68
2022/09/03 07:11:07;;;;;;;2.63;1.83;;;;;;;;;;5031726;28;20594;-68
2022/09/03 07:13:35;;;;;;;2.13;1.93;;;;;;;;;;5031876;28;20448;-69
2022/09/03 07:16:02;;;;;;;4.30;2.40;;;;;;;;;;5031687;28;20475;-69
2022/09/03 07:18:30;;;;;;;3.53;2.30;;;;;;;;;;5032064;28;20458;-69
2022/09/03 07:21:00;;;;;;;6.50;2.30;;;;;;;;;;5031742;28;20546;-69
2022/09/03 07:23:28;;;;;;;2.10;1.90;;;;;;;;;;5031575;28;20447;-71
2022/09/03 07:25:57;;;;;;;2.20;2.00;;;;;;;;;;5060967;28;20525;-68
2022/09/03 07:28:25;;;;;;;3.37;2.40;;;;;;;;;;5071829;28;20453;-67
2022/09/03 07:30:52;;;;;;;2.70;1.97;;;;;;;;;;5071164;28;20584;-67
2022/09/03 07:33:19;;;;;;;2.80;2.60;;;;;;;;;;5066165;28;20464;-67
2022/09/03 07:35:47;;;;;;;3.43;2.47;;;;;;;;;;5071723;28;20456;-67
2022/09/03 07:38:18;;;;;;;2.97;2.30;;;20.00;1.00;;;;;;5068550;28;20449;-67
2022/09/03 07:40:45;;;;;;;2.83;2.33;;;19.20;99.90;;;;;;5071591;28;20494;-68
2022/09/03 07:43:14;;;;;;;2.90;2.70;;;19.40;99.90;;;;;;5070777;28;20450;-68
2022/09/03 07:45:44;;;;;;;4.00;1.97;;;19.40;99.90;;;;;;5071350;28;20441;-68
2022/09/03 07:48:11;;;;;;;2.73;2.33;;;19.40;99.90;;;;;;5071167;28;20887;-68
2022/09/03 07:50:39;;;;;;;3.50;1.90;;;19.40;99.90;;;;;;5071143;28;20493;-67
2022/09/03 07:53:07;;;;;;;2.63;2.43;;;19.60;99.90;;;;;;5070151;28;20438;-67
2022/09/03 07:55:33;;;;;;;3.00;2.70;;;19.50;99.90;;;;;;5070912;28;20458;-67
2022/09/03 07:58:00;;;;;;;3.47;2.67;;;19.70;99.90;;;;;;5070859;28;20537;-67
2022/09/03 08:00:31;;;;;;;3.00;2.10;;;19.70;99.90;;;;;;5071237;28;20458;-67
2022/09/03 08:03:04;;;;;;;2.80;2.60;;;19.80;99.90;;;;;;5070158;28;20500;-67
2022/09/03 08:05:32;;;;;;;2.63;2.40;;;19.90;99.90;;;;;;5070578;28;20944;-67
2022/09/03 08:08:00;;;;;;;1.70;1.60;;;;;;;;;;5069775;28;20457;-67
2022/09/03 08:10:29;;;;;;;2.40;2.20;;;;;;;;;;5068026;28;20564;-67
2022/09/03 08:12:57;;;;;;;3.20;2.53;;;;;;;;;;5069974;28;20484;-68
2022/09/03 08:15:24;;;;;;;3.90;2.30;;;20.00;67.70;;;;;;5069728;28;20446;-67
2022/09/03 08:17:52;;;;;;;2.53;2.33;;;20.50;1.00;;;;;;5070247;28;20449;-68
2022/09/03 08:20:19;;;;;;;2.23;2.03;;;20.60;1.00;;;;;;5070626;28;20462;-67
2022/09/03 08:22:47;;;;;;;4.53;2.13;;;20.60;1.00;;;;;;5070598;28;20454;-67
2022/09/03 08:25:14;;;;;;;2.10;1.90;;;20.80;1.00;;;;;;5069897;28;20911;-66
2022/09/03 08:27:41;;;;;;;2.27;1.90;;;20.80;1.00;;;;;;5070696;28;20454;-71
2022/09/03 08:30:10;;;;;;;2.90;2.17;;;;;;;;;;5070150;28;20488;-68
2022/09/03 08:32:37;;;;;;;2.93;2.20;;;;;;;;;;5070515;28;20457;-68
2022/09/03 08:35:08;;;;;;;2.20;2.00;;;;;;;;;;5069643;28;20456;-68
2022/09/03 08:37:35;;;;;;;2.20;2.00;;;;;;;;;;5070534;28;20448;-68
2022/09/03 08:40:04;;;;;;;1.93;1.73;;;;;;;;;;5070072;28;20450;-68
2022/09/03 08:42:45;;;;;;;2.90;2.57;;;;;;;;;;5070321;28;20824;-68
2022/09/03 08:45:15;;;;;;;2.63;2.07;;;;;;;;;;5070120;28;20453;-68
2022/09/03 08:47:44;;;;;;;2.07;1.87;;;;;;;;;;5070490;28;20471;-68
2022/09/03 08:50:17;;;;;;;1.97;1.87;;;;;;;;;;5070043;28;20572;-68
2022/09/03 08:52:48;;;;;;;2.77;2.17;;;;;;;;;;5069847;28;20437;-68
2022/09/03 08:55:22;;;;;;;2.47;1.90;;;;;;;;;;5070582;28;20809;-69
2022/09/03 08:57:51;;;;;;;2.20;2.03;;;;;;;;;;5070153;28;20445;-69
2022/09/03 09:00:19;;;;;;;2.03;1.83;;;;;;;;;;5070025;28;20454;-68
2022/09/03 09:02:54;;;;;;;2.27;2.07;;;;;;;;;;5069716;28;20446;-68
2022/09/03 09:05:25;;;;;;;2.20;2.00;;;;;;;;;;5070132;28;20924;-68
2022/09/03 09:07:54;;;;;;;2.20;2.00;;;;;;;;;;5069907;28;20450;-69
2022/09/03 09:10:25;;;;;;;2.77;2.40;;;;;;;;;;5070061;28;20507;-69
2022/09/03 09:12:57;;;;;;;2.30;2.10;;;;;;;;;;5069522;28;20548;-68
2022/09/03 09:15:29;;;;;;;3.03;2.83;;;;;;;;;;5070073;28;20450;-68
2022/09/03 09:18:11;;;;;;;2.20;2.00;;;;;;;;;;5069854;28;20441;-69
2022/09/03 09:20:43;;;;;;;1.87;1.77;;;;;;;;;;5072680;28;20457;-68
2022/09/03 09:23:14;;;;;;;1.97;1.87;;;;;;;;;;5073668;28;20434;-68
2022/09/03 09:25:45;;;;;;;2.20;2.00;;;;;;;;;;5074041;28;20483;-69
2022/09/03 09:28:17;;;;;;;2.30;2.10;;;;;;;;;;5073709;28;20441;-68
2022/09/03 09:30:46;;;;;;;2.70;2.47;;;;;;;;;;5074454;28;20485;-68
2022/09/03 09:33:13;;;;;;;2.40;2.20;;;;;;;;;;5073241;28;20542;-68
2022/09/03 09:35:41;;;;;;;2.40;2.20;;;;;;;;;;5074113;28;20468;-68
2022/09/03 09:38:09;;;;;;;3.10;2.90;;;;;;;;;;5073641;28;20809;-68
2022/09/03 09:40:37;;;;;;;2.20;2.00;;;;;;;;;;5073558;28;20450;-68
2022/09/03 09:43:09;;;;;;;3.30;2.20;;;;;;;;;;5072876;28;20452;-68
2022/09/03 09:45:39;;;;;;;2.57;2.37;;;;;;;;;;5073977;28;20437;-69
2022/09/03 09:48:09;;;;;;;2.40;2.20;;;;;;;;;;5060945;28;20445;-68
2022/09/03 09:50:36;;;;;;;2.67;2.13;;;;;;;;;;5073533;28;20488;-68
2022/09/03 09:53:13;;;;;;;1.90;1.80;;;;;;;;;;5072896;28;20451;-69
2022/09/03 09:55:49;;;;;;;3.33;3.00;;;;;;;;;;5073665;28;20807;-68
2022/09/03 09:58:16;;;;;;;2.80;2.47;;;;;;;;;;5073852;28;20903;-69
2022/09/03 10:00:55;;;;;;;2.57;2.37;;;;;;;;;;5073534;28;20484;-68
2022/09/03 10:03:22;;;;;;;2.80;2.60;;;;;;;;;;5073070;28;20855;-68
2022/09/03 10:05:58;;;;;;;2.30;2.10;;;;;;;;;;5073451;28;20449;-68
2022/09/03 10:08:27;;;;;;;2.77;2.57;;;;;;;;;;5073503;28;20520;-68
2022/09/03 10:10:54;;;;;;;2.50;2.30;;;;;;;;;;5072601;28;20524;-68
2022/09/03 10:13:23;;;;;;;2.90;2.70;;;;;;;;;;5072748;28;20453;-68
2022/09/03 10:15:52;;;;;;;2.93;2.63;;;;;;;;;;5072781;28;20475;-70
2022/09/03 10:18:27;;;;;;;2.60;2.40;;;;;;;;;;5073144;28;20445;-68
2022/09/03 10:21:00;;;;;;;2.70;2.50;;;;;;;;;;5073098;28;20547;-68
2022/09/03 10:23:30;;;;;;;2.97;2.10;;;;;;;;;;5072783;28;20506;-68
2022/09/03 10:26:05;;;;;;;2.43;2.23;;;;;;;;;;5072402;28;20993;-69
2022/09/03 10:28:37;;;;;;;2.77;2.43;;;;;;;;;;5072741;28;20514;-68
2022/09/03 10:31:12;;;;;;;2.40;2.20;;;;;;;;;;5072391;28;20519;-69
2022/09/03 10:33:42;;;;;;;4.80;2.27;;;;;;;;;;5060302;28;20449;-68
2022/09/03 10:36:12;;;;;;;2.77;2.37;;;;;;;;;;5072546;28;20461;-68
2022/09/03 10:38:42;;;;;;;3.53;3.00;;;;;;;;;;5072698;28;20461;-68
2022/09/03 10:41:18;;;;;;;3.07;2.63;;;;;;;;;;5072190;28;20756;-68
2022/09/03 10:43:54;;;;;;;2.20;2.00;;;;;;;;;;5072674;28;20429;-68
2022/09/03 10:46:26;;;;;;;2.40;2.20;;;;;;;;;;5072487;28;20466;-68
2022/09/03 10:49:09;;;;;;;2.60;1.90;;;;;;;;;;5072141;28;20453;-69
2022/09/03 10:51:37;;;;;;;2.40;2.20;;;;;;;;;;5072301;28;20847;-68
2022/09/03 10:54:13;;;;;;;2.97;2.77;;;;;;;;;;5071546;28;20472;-69
2022/09/03 10:56:44;;;;;;;2.93;2.37;;;;;;;;;;5072527;28;20506;-68
2022/09/03 10:59:21;;;;;;;2.73;2.43;;;;;;;;;;5072184;28;20449;-68
2022/09/03 11:01:53;;;;;;;3.70;2.70;;;;;;;;;;5072441;28;20446;-68
2022/09/03 11:04:26;;;;;;;3.33;3.03;;;;;;;;;;5072237;28;20456;-69
2022/09/03 11:06:55;;;;;;;2.63;2.43;;;;;;;;;;5072011;28;20448;-69
2022/09/03 11:09:27;;;;;;;2.53;2.33;;;;;;;;;;5072381;28;20600;-68
2022/09/03 11:11:57;;;;;;;3.00;2.70;;;;;;;;;;5071567;28;21006;-68
2022/09/03 11:14:29;;;;;;;3.10;2.70;;;;;;;;;;5071704;28;20817;-68
2022/09/03 11:17:02;;;;;;;3.13;2.83;;;;;;;;;;5071754;28;20464;-68
2022/09/03 11:19:34;;;;;;;3.13;2.53;;;;;;;;;;5072116;28;20790;-68
2022/09/03 11:22:01;;;;;;;2.77;2.53;;;;;;;;;;5071712;28;20567;-68
2022/09/03 11:24:31;;;;;;;2.70;2.50;;;;;;;;;;5071162;28;20483;-68
2022/09/03 11:27:03;;;;;;;2.80;2.53;;;;;;;;;;5071298;28;20445;-68
2022/09/03 11:29:36;;;;;;;3.30;2.60;;;;;;;;;;5072426;28;20464;-68
2022/09/03 11:32:06;;;;;;;3.00;2.80;;;;;;;;;;5071522;28;20524;-68
2022/09/03 11:34:45;;;;;;;2.60;2.40;;;;;;;;;;5071277;28;20445;-70
2022/09/03 11:37:18;;;;;;;2.80;2.10;;;;;;;;;;5071478;28;20567;-68
2022/09/03 11:39:54;;;;;;;2.90;2.70;;;;;;;;;;5071884;28;20457;-68
2022/09/03 11:42:27;;;;;;;2.73;2.53;;;;;;;;;;5071040;28;20527;-69
2022/09/03 11:45:00;;;;;;;3.33;3.03;;;;;;;;;;5059080;28;20456;-69
2022/09/03 11:47:38;;;;;;;3.40;2.50;;;;;;;;;;5071531;28;20485;-68
2022/09/03 11:50:08;;;;;;;5.07;3.53;;;;;;;;;;5071339;28;20453;-68
2022/09/03 11:52:39;;;;;;;18.70;7.10;;;;;;;;;;5070945;28;21038;-68
2022/09/03 11:55:08;;;;;;;3.50;2.60;;;;;;;;;;5071097;28;20462;-68
2022/09/03 11:57:42;;;;;;;3.17;2.80;;;;;;;;;;5071157;28;20537;-69
2022/09/03 12:00:11;;;;;;;2.93;2.63;;;;;;;;;;5070933;28;20815;-68
2022/09/03 12:02:43;;;;;;;2.70;2.50;;;;;;;;;;5070425;28;20504;-68
2022/09/03 12:05:19;;;;;;;2.33;2.13;;;;;;;;;;5071007;28;20449;-69
2022/09/03 12:08:13;;;;;;;2.70;2.50;;;;;;;;;;5070849;28;20449;-68
2022/09/03 12:10:46;;;;;;;2.80;2.30;;;;;;;;;;5023277;28;20524;-69
2022/09/03 12:13:19;;;;;;;4.53;3.00;;;;;;;;;;5054185;28;20478;-69
2022/09/03 12:15:54;;;;;;;2.60;2.40;;;;;;;;;;5068548;28;21071;-69
2022/09/03 12:18:23;;;;;;;2.00;1.90;;;;;;;;;;5067587;28;20450;-69
2022/09/03 12:21:01;;;;;;;3.10;2.90;;;;;;;;;;5067672;28;20540;-69
2022/09/03 12:23:29;;;;;;;2.90;2.40;;;;;;;;;;5067707;28;20461;-69
2022/09/03 12:25:58;;;;;;;2.47;2.27;;;;;;;;;;5067957;28;20489;-69
2022/09/03 12:28:28;;;;;;;2.73;2.50;;;;;;;;;;5068458;28;20532;-69
2022/09/03 12:31:06;;;;;;;2.90;2.70;;;;;;;;;;5065878;28;20471;-69
2022/09/03 12:33:34;;;;;;;4.47;2.20;;;;;;;;;;5067811;28;20477;-69
2022/09/03 12:36:02;;;;;;;1.53;1.40;;;;;;;;;;5067582;28;20460;-69
2022/09/03 12:38:31;;;;;;;2.20;1.83;;;;;;;;;;5068252;28;20475;-68
2022/09/03 12:40:59;;;;;;;3.30;1.77;;;;;;;;;;5067564;28;20781;-69
2022/09/03 12:43:29;;;;;;;1.70;1.57;;;;;;;;;;5068063;28;20460;-68
2022/09/03 12:45:56;;;;;;;2.07;1.50;;;;;;;;;;5067386;28;20456;-69
2022/09/03 12:48:25;;;;;;;1.83;1.60;;;;;;;;;;5067195;28;20837;-69
2022/09/03 12:51:01;;;;;;;2.07;1.87;;;;;;;;;;5067503;28;20573;-71
2022/09/03 12:53:29;;;;;;;5.40;2.27;;;;;;;;;;5066920;28;20998;-69
2022/09/03 12:55:57;;;;;;;3.70;1.53;;;;;;;;;;5067175;28;20450;-68
2022/09/03 12:58:28;;;;;;;1.60;1.13;;;;;;;;;;5067757;28;20542;-68
2022/09/03 13:00:57;;;;;;;5.50;1.73;;;;;;;;;;5068075;28;20949;-71
2022/09/03 13:03:28;;;;;;;1.70;1.17;;;;;;;;;;5069396;28;20450;-67
2022/09/03 13:05:57;;;;;;;1.53;0.97;;;;;;;;;;5068738;28;20525;-67
2022/09/03 13:08:26;;;;;;;1.83;1.60;;;;;;;;;;5070292;28;20446;-67
2022/09/03 13:10:55;;;;;;;1.30;1.17;;;;;;;;;;5069505;28;20452;-67
2022/09/03 13:13:24;;;;;;;1.93;1.73;;;;;;;;;;5069654;28;20477;-67
2022/09/03 13:16:14;;;;;;;1.50;1.13;;;;;;;;;;5069971;28;20532;-67
2022/09/03 13:18:45;;;;;;;3.00;1.63;;;;;;;;;;5070352;28;20438;-67
2022/09/03 13:21:17;;;;;;;5.13;1.53;;;;;;;;;;5069989;28;20539;-67
2022/09/03 13:23:55;;;;;;;1.67;1.33;;;;;;;;;;5069792;28;20857;-67
2022/09/03 13:26:27;;;;;;;2.27;1.47;;;;;;;;;;5069671;28;20477;-67
2022/09/03 13:29:15;;;;;;;5.83;1.47;;;;;;;;;;5069704;28;20469;-68
2022/09/03 13:31:47;;;;;;;1.33;1.20;;;;;;;;;;5069809;28;20992;-68
2022/09/03 13:34:22;;;;;;;3.53;1.60;;;20.80;1.00;;;;;;5069218;28;20537;-67
2022/09/03 13:36:51;;;;;;;1.77;1.40;;;;;;;;;;5070277;28;20441;-67
2022/09/03 13:39:22;;;;;;;1.57;1.30;;;;;;;;;;5070000;28;20468;-67
2022/09/03 13:41:53;;;;;;;1.70;1.40;;;;;;;;;;5070159;28;20449;-67
2022/09/03 13:44:22;;;;;;;1.13;1.00;;;;;;;;;;5069598;28;20532;-68
2022/09/03 13:46:53;;;;;;;1.93;1.10;;;;;;;;;;5069978;28;20448;-68
2022/09/03 13:52:18;;;;;;;1.47;0.90;;;;;;;;;;5069049;28;20526;-68
2022/09/03 13:54:47;;;;;;;1.70;1.13;;;;;;;;;;5070095;28;20536;-68
2022/09/03 13:57:20;;;;;;;1.30;1.03;;;;;;;;;;5069270;28;20865;-68
2022/09/03 13:59:50;;;;;;;1.47;1.20;;;;;;;;;;5069556;28;20451;-68
2022/09/03 14:02:24;;;;;;;1.70;1.10;;;;;;;;;;5068946;28;20955;-68
2022/09/03 14:04:56;;;;;;;2.33;1.47;;;;;;;;;;5069093;28;20864;-69
2022/09/03 14:07:26;;;;;;;2.00;1.37;;;;;;;;;;5072484;28;20518;-68
2022/09/03 14:09:56;;;;;;;3.27;1.67;;;;;;;;;;5072769;28;20934;-68
2022/09/03 14:12:30;;;;;;;1.83;1.47;;;;;;;;;;5059949;28;20496;-68
2022/09/03 14:15:00;;;;;;;1.40;1.10;;;;;;;;;;5073027;28;20445;-69
2022/09/03 14:17:33;;;;;;;1.57;1.30;;;;;;;;;;5073103;28;20955;-69
2022/09/03 14:20:03;;;;;;;1.10;0.90;;;;;;;;;;5072682;28;20501;-68
2022/09/03 14:22:34;;;;;;;1.60;1.13;;;;;;;;;;5072749;28;20461;-69
2022/09/03 14:25:03;;;;;;;1.97;1.07;;;;;;;;;;5072320;28;20479;-69
2022/09/03 14:27:31;;;;;;;1.90;1.27;;;;;;;;;;5072879;28;20528;-69
2022/09/03 14:30:00;;;;;;;1.30;1.20;;;;;;;;;;5072480;28;20453;-69
2022/09/03 14:32:33;;;;;;;2.10;1.57;;;;;;;;;;5072270;28;20496;-69
2022/09/03 14:35:18;;;;;;;2.20;1.10;;;;;;;;;;5072669;28;20477;-70
2022/09/03 14:37:54;;;;;;;1.40;1.30;;;;;;;;;;5032814;28;21034;-68
2022/09/03 14:40:26;;;;;;;1.00;0.90;;;;;;;;;;5072842;28;20444;-70
2022/09/03 14:43:00;;;;;;;1.27;1.17;;;;;;;;;;5071921;28;20456;-70
2022/09/03 14:45:49;;;;;;;0.80;0.63;;;;;;;;;;5072886;28;20443;-70
2022/09/03 14:48:31;;;;;;;0.80;0.70;;;;;;;;;;5061460;28;20485;-70
2022/09/03 14:51:05;;;;;;;2.50;1.00;;;;;;;;;;5072331;28;20449;-70
2022/09/03 14:53:43;;;;;;;1.47;1.07;;;;;;;;;;5071993;28;20481;-69
2022/09/03 14:56:26;;;;;;;1.30;1.03;;;19.00;99.90;;;;;;5072287;28;20449;-70
2022/09/03 14:59:01;;;;;;;1.30;0.83;;;;;;;;;;5067772;28;20550;-70
2022/09/03 15:01:30;;;;;;;1.00;0.70;;;;;;;;;;5072476;28;20459;-70